sensor_id;sensor_type;location;lat;lon;timestamp;P1;P2;P0
74333;PMS5003;62753;40.394;-80.022;2023-07-30T00:00:48;5;5;
74333;PMS5003;62753;40.394;-80.022;2023-07-30T00:03:10;5;5;
74333;PMS5003;62753;40.394;-80.022;2023-07-30T00:05:35;3;3;
74333;PMS5003;62753;40.394;-80.022;2023-07-30T00:08:00;5;5;
74333;PMS5003;62753;40.394;-80.022;2023-07-30T00:10:25;3;3;
74333;PMS5003;62753;40.394;-80.022;2023-07-30T00:12:51;6;6;
74333;PMS5003;62753;40.394;-80.022;2023-07-30T00:15:15;5;4;
74333;PMS5003;62753;40.394;-80.022;2023-07-30T00:17:40;6;6;
74333;PMS5003;62753;40.394;-80.022;2023-07-30T00:20:07;7;6;
74333;PMS5003;62753;40.394;-80.022;2023-07-30T00:22:31;6;6;
74333;PMS5003;62753;40.394;-80.022;2023-07-30T00:24:56;6;6;
74333;PMS5003;62753;40.394;-80.022;2023-07-30T00:27:21;6;5;
74333;PMS5003;62753;40.394;-80.022;2023-07-30T00:29:46;8;8;
74333;PMS5003;62753;40.394;-80.022;2023-07-30T00:32:12;6;6;
74333;PMS5003;62753;40.394;-80.022;2023-07-30T00:34:36;9;8;
74333;PMS5003;62753;40.394;-80.022;2023-07-30T00:37:01;7;7;
74333;PMS5003;62753;40.394;-80.022;2023-07-30T00:39:27;6;6;
74333;PMS5003;62753;40.394;-80.022;2023-07-30T00:41:52;6;6;
74333;PMS5003;62753;40.394;-80.022;2023-07-30T00:44:17;5;4;
74333;PMS5003;62753;40.394;-80.022;2023-07-30T00:46:42;7;6;
74333;PMS5003;62753;40.394;-80.022;2023-07-30T00:49:07;8;8;
74333;PMS5003;62753;40.394;-80.022;2023-07-30T00:51:33;6;6;
74333;PMS5003;62753;40.394;-80.022;2023-07-30T00:53:57;6;6;
74333;PMS5003;62753;40.394;-80.022;2023-07-30T00:56:22;5;5;
74333;PMS5003;62753;40.394;-80.022;2023-07-30T00:58:47;7;6;
74333;PMS5003;62753;40.394;-80.022;2023-07-30T01:01:13;7;7;
74333;PMS5003;62753;40.394;-80.022;2023-07-30T01:03:38;9;8;
74333;PMS5003;62753;40.394;-80.022;2023-07-30T01:06:03;7;7;
74333;PMS5003;62753;40.394;-80.022;2023-07-30T01:08:28;9;8;
74333;PMS5003;62753;40.394;-80.022;2023-07-30T01:10:53;9;9;
74333;PMS5003;62753;40.394;-80.022;2023-07-30T01:13:18;8;8;
74333;PMS5003;62753;40.394;-80.022;2023-07-30T01:15:44;5;5;
74333;PMS5003;62753;40.394;-80.022;2023-07-30T01:18:09;5;5;
74333;PMS5003;62753;40.394;-80.022;2023-07-30T01:20:34;4;4;
74333;PMS5003;62753;40.394;-80.022;2023-07-30T01:22:59;5;5;
74333;PMS5003;62753;40.394;-80.022;2023-07-30T01:25:24;6;6;
74333;PMS5003;62753;40.394;-80.022;2023-07-30T01:27:52;7;6;
74333;PMS5003;62753;40.394;-80.022;2023-07-30T01:30:15;8;8;
74333;PMS5003;62753;40.394;-80.022;2023-07-30T01:32:40;6;6;
74333;PMS5003;62753;40.394;-80.022;2023-07-30T01:35:05;8;8;
74333;PMS5003;62753;40.394;-80.022;2023-07-30T01:37:30;7;6;
74333;PMS5003;62753;40.394;-80.022;2023-07-30T01:39:55;7;7;
74333;PMS5003;62753;40.394;-80.022;2023-07-30T01:42:20;9;8;
74333;PMS5003;62753;40.394;-80.022;2023-07-30T01:44:46;6;6;
74333;PMS5003;62753;40.394;-80.022;2023-07-30T01:47:11;6;5;
74333;PMS5003;62753;40.394;-80.022;2023-07-30T01:49:36;9;8;
74333;PMS5003;62753;40.394;-80.022;2023-07-30T01:52:01;7;7;
74333;PMS5003;62753;40.394;-80.022;2023-07-30T01:54:26;5;5;
74333;PMS5003;62753;40.394;-80.022;2023-07-30T01:56:51;7;7;
74333;PMS5003;62753;40.394;-80.022;2023-07-30T01:59:16;5;5;
74333;PMS5003;62753;40.394;-80.022;2023-07-30T02:01:42;5;5;
74333;PMS5003;62753;40.394;-80.022;2023-07-30T02:04:07;5;5;
74333;PMS5003;62753;40.394;-80.022;2023-07-30T02:06:32;5;5;
74333;PMS5003;62753;40.394;-80.022;2023-07-30T02:08:57;4;4;
74333;PMS5003;62753;40.394;-80.022;2023-07-30T02:11:22;7;7;
74333;PMS5003;62753;40.394;-80.022;2023-07-30T02:13:48;10;9;
74333;PMS5003;62753;40.394;-80.022;2023-07-30T02:16:13;4;4;
74333;PMS5003;62753;40.394;-80.022;2023-07-30T02:18:39;6;6;
74333;PMS5003;62753;40.394;-80.022;2023-07-30T02:21:03;5;5;
74333;PMS5003;62753;40.394;-80.022;2023-07-30T02:23:29;5;5;
74333;PMS5003;62753;40.394;-80.022;2023-07-30T02:25:54;4;4;
74333;PMS5003;62753;40.394;-80.022;2023-07-30T02:28:19;6;6;
74333;PMS5003;62753;40.394;-80.022;2023-07-30T02:30:44;5;5;
74333;PMS5003;62753;40.394;-80.022;2023-07-30T02:33:09;4;4;
74333;PMS5003;62753;40.394;-80.022;2023-07-30T02:35:35;5;5;
74333;PMS5003;62753;40.394;-80.022;2023-07-30T02:38:00;5;5;
74333;PMS5003;62753;40.394;-80.022;2023-07-30T02:40:25;5;5;
74333;PMS5003;62753;40.394;-80.022;2023-07-30T02:42:50;4;4;
74333;PMS5003;62753;40.394;-80.022;2023-07-30T02:45:15;6;6;
74333;PMS5003;62753;40.394;-80.022;2023-07-30T02:47:41;5;5;
74333;PMS5003;62753;40.394;-80.022;2023-07-30T02:50:06;6;6;
74333;PMS5003;62753;40.394;-80.022;2023-07-30T02:52:31;6;5;
74333;PMS5003;62753;40.394;-80.022;2023-07-30T02:54:55;5;5;
74333;PMS5003;62753;40.394;-80.022;2023-07-30T02:57:21;7;6;
74333;PMS5003;62753;40.394;-80.022;2023-07-30T02:59:46;6;5;
74333;PMS5003;62753;40.394;-80.022;2023-07-30T03:02:11;5;5;
74333;PMS5003;62753;40.394;-80.022;2023-07-30T03:04:36;4;4;
74333;PMS5003;62753;40.394;-80.022;2023-07-30T03:07:01;6;5;
74333;PMS5003;62753;40.394;-80.022;2023-07-30T03:09:27;4;3;
74333;PMS5003;62753;40.394;-80.022;2023-07-30T03:11:51;5;5;
74333;PMS5003;62753;40.394;-80.022;2023-07-30T03:14:17;6;5;
74333;PMS5003;62753;40.394;-80.022;2023-07-30T03:16:42;5;5;
74333;PMS5003;62753;40.394;-80.022;2023-07-30T03:19:07;7;7;
74333;PMS5003;62753;40.394;-80.022;2023-07-30T03:21:32;6;5;
74333;PMS5003;62753;40.394;-80.022;2023-07-30T03:23:57;8;8;
74333;PMS5003;62753;40.394;-80.022;2023-07-30T03:26:23;5;5;
74333;PMS5003;62753;40.394;-80.022;2023-07-30T03:28:48;5;5;
74333;PMS5003;62753;40.394;-80.022;2023-07-30T03:31:13;6;5;
74333;PMS5003;62753;40.394;-80.022;2023-07-30T03:33:39;4;4;
74333;PMS5003;62753;40.394;-80.022;2023-07-30T03:36:03;6;5;
74333;PMS5003;62753;40.394;-80.022;2023-07-30T03:38:28;5;5;
74333;PMS5003;62753;40.394;-80.022;2023-07-30T03:40:53;6;6;
74333;PMS5003;62753;40.394;-80.022;2023-07-30T03:43:19;5;5;
74333;PMS5003;62753;40.394;-80.022;2023-07-30T03:45:45;6;5;
74333;PMS5003;62753;40.394;-80.022;2023-07-30T03:48:10;6;6;
74333;PMS5003;62753;40.394;-80.022;2023-07-30T03:50:35;7;6;
74333;PMS5003;62753;40.394;-80.022;2023-07-30T03:53:00;5;5;
74333;PMS5003;62753;40.394;-80.022;2023-07-30T03:55:25;5;5;
74333;PMS5003;62753;40.394;-80.022;2023-07-30T03:57:51;6;5;
74333;PMS5003;62753;40.394;-80.022;2023-07-30T04:00:16;6;6;
74333;PMS5003;62753;40.394;-80.022;2023-07-30T04:02:41;8;7;
74333;PMS5003;62753;40.394;-80.022;2023-07-30T04:05:06;6;6;
74333;PMS5003;62753;40.394;-80.022;2023-07-30T04:07:32;10;10;
74333;PMS5003;62753;40.394;-80.022;2023-07-30T04:09:56;7;7;
74333;PMS5003;62753;40.394;-80.022;2023-07-30T04:12:22;8;7;
74333;PMS5003;62753;40.394;-80.022;2023-07-30T04:14:47;8;7;
74333;PMS5003;62753;40.394;-80.022;2023-07-30T04:17:12;6;6;
74333;PMS5003;62753;40.394;-80.022;2023-07-30T04:19:38;7;7;
74333;PMS5003;62753;40.394;-80.022;2023-07-30T04:22:03;8;8;
74333;PMS5003;62753;40.394;-80.022;2023-07-30T04:24:28;6;6;
74333;PMS5003;62753;40.394;-80.022;2023-07-30T04:26:53;10;9;
74333;PMS5003;62753;40.394;-80.022;2023-07-30T04:29:18;8;7;
74333;PMS5003;62753;40.394;-80.022;2023-07-30T04:31:43;10;8;
74333;PMS5003;62753;40.394;-80.022;2023-07-30T04:34:09;7;7;
74333;PMS5003;62753;40.394;-80.022;2023-07-30T04:36:33;6;6;
74333;PMS5003;62753;40.394;-80.022;2023-07-30T04:38:59;7;7;
74333;PMS5003;62753;40.394;-80.022;2023-07-30T04:41:24;8;6;
74333;PMS5003;62753;40.394;-80.022;2023-07-30T04:43:49;6;6;
74333;PMS5003;62753;40.394;-80.022;2023-07-30T04:46:14;8;7;
74333;PMS5003;62753;40.394;-80.022;2023-07-30T04:48:40;7;6;
74333;PMS5003;62753;40.394;-80.022;2023-07-30T04:51:05;5;5;
74333;PMS5003;62753;40.394;-80.022;2023-07-30T04:53:30;5;5;
74333;PMS5003;62753;40.394;-80.022;2023-07-30T04:55:55;6;6;
74333;PMS5003;62753;40.394;-80.022;2023-07-30T04:58:21;6;6;
74333;PMS5003;62753;40.394;-80.022;2023-07-30T05:00:46;5;5;
74333;PMS5003;62753;40.394;-80.022;2023-07-30T05:03:11;6;5;
74333;PMS5003;62753;40.394;-80.022;2023-07-30T05:05:36;6;6;
74333;PMS5003;62753;40.394;-80.022;2023-07-30T05:08:01;6;6;
74333;PMS5003;62753;40.394;-80.022;2023-07-30T05:10:27;6;6;
74333;PMS5003;62753;40.394;-80.022;2023-07-30T05:12:51;6;5;
74333;PMS5003;62753;40.394;-80.022;2023-07-30T05:15:16;8;8;
74333;PMS5003;62753;40.394;-80.022;2023-07-30T05:17:42;24;19;
74333;PMS5003;62753;40.394;-80.022;2023-07-30T05:20:08;16;14;
74333;PMS5003;62753;40.394;-80.022;2023-07-30T05:22:33;19;18;
74333;PMS5003;62753;40.394;-80.022;2023-07-30T05:24:58;28;22;
74333;PMS5003;62753;40.394;-80.022;2023-07-30T05:27:23;16;15;
74333;PMS5003;62753;40.394;-80.022;2023-07-30T05:29:48;14;13;
74333;PMS5003;62753;40.394;-80.022;2023-07-30T05:32:14;12;12;
74333;PMS5003;62753;40.394;-80.022;2023-07-30T05:34:40;12;11;
74333;PMS5003;62753;40.394;-80.022;2023-07-30T05:37:05;11;10;
74333;PMS5003;62753;40.394;-80.022;2023-07-30T05:39:30;10;10;
74333;PMS5003;62753;40.394;-80.022;2023-07-30T05:41:55;12;12;
74333;PMS5003;62753;40.394;-80.022;2023-07-30T05:44:21;13;13;
74333;PMS5003;62753;40.394;-80.022;2023-07-30T05:46:47;14;14;
74333;PMS5003;62753;40.394;-80.022;2023-07-30T05:49:13;17;16;
74333;PMS5003;62753;40.394;-80.022;2023-07-30T05:51:37;14;14;
74333;PMS5003;62753;40.394;-80.022;2023-07-30T05:54:03;21;20;
74333;PMS5003;62753;40.394;-80.022;2023-07-30T05:56:28;21;21;
74333;PMS5003;62753;40.394;-80.022;2023-07-30T05:58:53;26;24;
74333;PMS5003;62753;40.394;-80.022;2023-07-30T06:01:19;17;17;
74333;PMS5003;62753;40.394;-80.022;2023-07-30T06:03:44;17;16;
74333;PMS5003;62753;40.394;-80.022;2023-07-30T06:06:09;11;11;
74333;PMS5003;62753;40.394;-80.022;2023-07-30T06:08:34;11;11;
74333;PMS5003;62753;40.394;-80.022;2023-07-30T06:11:00;10;9;
74333;PMS5003;62753;40.394;-80.022;2023-07-30T06:13:24;7;7;
74333;PMS5003;62753;40.394;-80.022;2023-07-30T06:15:49;9;9;
74333;PMS5003;62753;40.394;-80.022;2023-07-30T06:18:15;8;7;
74333;PMS5003;62753;40.394;-80.022;2023-07-30T06:20:40;8;8;
74333;PMS5003;62753;40.394;-80.022;2023-07-30T06:23:05;7;7;
74333;PMS5003;62753;40.394;-80.022;2023-07-30T06:25:30;7;7;
74333;PMS5003;62753;40.394;-80.022;2023-07-30T06:27:56;9;8;
74333;PMS5003;62753;40.394;-80.022;2023-07-30T06:30:21;9;8;
74333;PMS5003;62753;40.394;-80.022;2023-07-30T06:32:46;8;8;
74333;PMS5003;62753;40.394;-80.022;2023-07-30T06:35:11;8;8;
74333;PMS5003;62753;40.394;-80.022;2023-07-30T06:37:37;7;6;
74333;PMS5003;62753;40.394;-80.022;2023-07-30T06:40:01;8;8;
74333;PMS5003;62753;40.394;-80.022;2023-07-30T06:42:27;10;8;
74333;PMS5003;62753;40.394;-80.022;2023-07-30T06:44:52;9;9;
74333;PMS5003;62753;40.394;-80.022;2023-07-30T06:47:17;10;8;
74333;PMS5003;62753;40.394;-80.022;2023-07-30T06:49:42;5;5;
74333;PMS5003;62753;40.394;-80.022;2023-07-30T06:52:07;8;7;
74333;PMS5003;62753;40.394;-80.022;2023-07-30T06:54:32;6;6;
74333;PMS5003;62753;40.394;-80.022;2023-07-30T06:56:58;7;6;
74333;PMS5003;62753;40.394;-80.022;2023-07-30T06:59:23;9;8;
74333;PMS5003;62753;40.394;-80.022;2023-07-30T07:01:48;8;7;
74333;PMS5003;62753;40.394;-80.022;2023-07-30T07:04:13;5;5;
74333;PMS5003;62753;40.394;-80.022;2023-07-30T07:06:39;8;6;
74333;PMS5003;62753;40.394;-80.022;2023-07-30T07:09:04;7;7;
74333;PMS5003;62753;40.394;-80.022;2023-07-30T07:11:29;10;9;
74333;PMS5003;62753;40.394;-80.022;2023-07-30T07:13:54;7;7;
74333;PMS5003;62753;40.394;-80.022;2023-07-30T07:16:20;10;7;
74333;PMS5003;62753;40.394;-80.022;2023-07-30T07:18:45;8;8;
74333;PMS5003;62753;40.394;-80.022;2023-07-30T07:21:10;9;7;
74333;PMS5003;62753;40.394;-80.022;2023-07-30T07:23:35;8;7;
74333;PMS5003;62753;40.394;-80.022;2023-07-30T07:26:00;6;6;
74333;PMS5003;62753;40.394;-80.022;2023-07-30T07:28:25;8;8;
74333;PMS5003;62753;40.394;-80.022;2023-07-30T07:30:51;10;9;
74333;PMS5003;62753;40.394;-80.022;2023-07-30T07:33:16;10;9;
74333;PMS5003;62753;40.394;-80.022;2023-07-30T07:35:41;9;9;
74333;PMS5003;62753;40.394;-80.022;2023-07-30T07:38:06;8;8;
74333;PMS5003;62753;40.394;-80.022;2023-07-30T07:40:35;7;7;
74333;PMS5003;62753;40.394;-80.022;2023-07-30T07:42:56;11;10;
74333;PMS5003;62753;40.394;-80.022;2023-07-30T07:45:21;9;7;
74333;PMS5003;62753;40.394;-80.022;2023-07-30T07:47:47;9;9;
74333;PMS5003;62753;40.394;-80.022;2023-07-30T07:50:12;9;9;
74333;PMS5003;62753;40.394;-80.022;2023-07-30T07:52:37;10;9;
74333;PMS5003;62753;40.394;-80.022;2023-07-30T07:55:02;8;7;
74333;PMS5003;62753;40.394;-80.022;2023-07-30T07:57:28;10;9;
74333;PMS5003;62753;40.394;-80.022;2023-07-30T07:59:53;11;9;
74333;PMS5003;62753;40.394;-80.022;2023-07-30T08:02:18;9;9;
74333;PMS5003;62753;40.394;-80.022;2023-07-30T08:04:44;12;11;
74333;PMS5003;62753;40.394;-80.022;2023-07-30T08:07:09;10;9;
74333;PMS5003;62753;40.394;-80.022;2023-07-30T08:09:34;10;9;
74333;PMS5003;62753;40.394;-80.022;2023-07-30T08:11:59;12;10;
74333;PMS5003;62753;40.394;-80.022;2023-07-30T08:14:24;8;7;
74333;PMS5003;62753;40.394;-80.022;2023-07-30T08:16:49;9;9;
74333;PMS5003;62753;40.394;-80.022;2023-07-30T08:19:15;7;7;
74333;PMS5003;62753;40.394;-80.022;2023-07-30T08:21:40;9;9;
74333;PMS5003;62753;40.394;-80.022;2023-07-30T08:24:05;9;8;
74333;PMS5003;62753;40.394;-80.022;2023-07-30T08:26:31;10;9;
74333;PMS5003;62753;40.394;-80.022;2023-07-30T08:28:56;11;10;
74333;PMS5003;62753;40.394;-80.022;2023-07-30T08:31:21;8;8;
74333;PMS5003;62753;40.394;-80.022;2023-07-30T08:33:46;8;7;
74333;PMS5003;62753;40.394;-80.022;2023-07-30T08:36:11;10;9;
74333;PMS5003;62753;40.394;-80.022;2023-07-30T08:38:36;10;9;
74333;PMS5003;62753;40.394;-80.022;2023-07-30T08:41:01;10;10;
74333;PMS5003;62753;40.394;-80.022;2023-07-30T08:43:27;10;9;
74333;PMS5003;62753;40.394;-80.022;2023-07-30T08:45:52;10;10;
74333;PMS5003;62753;40.394;-80.022;2023-07-30T08:48:17;6;6;
74333;PMS5003;62753;40.394;-80.022;2023-07-30T08:50:43;9;9;
74333;PMS5003;62753;40.394;-80.022;2023-07-30T08:53:08;8;8;
74333;PMS5003;62753;40.394;-80.022;2023-07-30T08:55:34;7;7;
74333;PMS5003;62753;40.394;-80.022;2023-07-30T08:57:59;8;8;
74333;PMS5003;62753;40.394;-80.022;2023-07-30T09:00:24;10;8;
74333;PMS5003;62753;40.394;-80.022;2023-07-30T09:02:50;10;10;
74333;PMS5003;62753;40.394;-80.022;2023-07-30T09:05:14;11;10;
74333;PMS5003;62753;40.394;-80.022;2023-07-30T09:07:40;9;9;
74333;PMS5003;62753;40.394;-80.022;2023-07-30T09:10:06;9;8;
74333;PMS5003;62753;40.394;-80.022;2023-07-30T09:12:32;7;7;
74333;PMS5003;62753;40.394;-80.022;2023-07-30T09:14:57;10;9;
74333;PMS5003;62753;40.394;-80.022;2023-07-30T09:17:22;8;8;
74333;PMS5003;62753;40.394;-80.022;2023-07-30T09:19:47;10;10;
74333;PMS5003;62753;40.394;-80.022;2023-07-30T09:22:13;11;10;
74333;PMS5003;62753;40.394;-80.022;2023-07-30T09:24:41;11;10;
74333;PMS5003;62753;40.394;-80.022;2023-07-30T09:27:04;11;10;
74333;PMS5003;62753;40.394;-80.022;2023-07-30T09:29:28;8;8;
74333;PMS5003;62753;40.394;-80.022;2023-07-30T09:31:54;9;8;
74333;PMS5003;62753;40.394;-80.022;2023-07-30T09:34:20;11;10;
74333;PMS5003;62753;40.394;-80.022;2023-07-30T09:36:45;8;8;
74333;PMS5003;62753;40.394;-80.022;2023-07-30T09:39:14;11;11;
74333;PMS5003;62753;40.394;-80.022;2023-07-30T09:41:35;10;10;
74333;PMS5003;62753;40.394;-80.022;2023-07-30T09:44:00;14;13;
74333;PMS5003;62753;40.394;-80.022;2023-07-30T09:46:28;13;11;
74333;PMS5003;62753;40.394;-80.022;2023-07-30T09:48:50;11;10;
74333;PMS5003;62753;40.394;-80.022;2023-07-30T09:51:15;14;13;
74333;PMS5003;62753;40.394;-80.022;2023-07-30T09:53:40;11;10;
74333;PMS5003;62753;40.394;-80.022;2023-07-30T09:56:06;10;10;
74333;PMS5003;62753;40.394;-80.022;2023-07-30T09:58:31;9;8;
74333;PMS5003;62753;40.394;-80.022;2023-07-30T10:00:57;11;10;
74333;PMS5003;62753;40.394;-80.022;2023-07-30T10:03:21;10;9;
74333;PMS5003;62753;40.394;-80.022;2023-07-30T10:05:47;8;7;
74333;PMS5003;62753;40.394;-80.022;2023-07-30T10:08:13;11;11;
74333;PMS5003;62753;40.394;-80.022;2023-07-30T10:10:38;12;12;
74333;PMS5003;62753;40.394;-80.022;2023-07-30T10:13:05;12;12;
74333;PMS5003;62753;40.394;-80.022;2023-07-30T10:15:29;14;13;
74333;PMS5003;62753;40.394;-80.022;2023-07-30T10:17:55;12;12;
74333;PMS5003;62753;40.394;-80.022;2023-07-30T10:20:20;11;11;
74333;PMS5003;62753;40.394;-80.022;2023-07-30T10:22:45;16;14;
74333;PMS5003;62753;40.394;-80.022;2023-07-30T10:25:10;16;14;
74333;PMS5003;62753;40.394;-80.022;2023-07-30T10:27:36;20;14;
74333;PMS5003;62753;40.394;-80.022;2023-07-30T10:30:09;13;12;
74333;PMS5003;62753;40.394;-80.022;2023-07-30T10:32:26;20;15;
74333;PMS5003;62753;40.394;-80.022;2023-07-30T10:34:50;15;14;
74333;PMS5003;62753;40.394;-80.022;2023-07-30T10:37:17;19;15;
74333;PMS5003;62753;40.394;-80.022;2023-07-30T10:39:42;20;16;
74333;PMS5003;62753;40.394;-80.022;2023-07-30T10:42:08;19;17;
74333;PMS5003;62753;40.394;-80.022;2023-07-30T10:44:34;27;19;
74333;PMS5003;62753;40.394;-80.022;2023-07-30T10:46:59;25;19;
74333;PMS5003;62753;40.394;-80.022;2023-07-30T10:49:24;21;18;
74333;PMS5003;62753;40.394;-80.022;2023-07-30T10:51:51;18;14;
74333;PMS5003;62753;40.394;-80.022;2023-07-30T10:54:15;25;18;
74333;PMS5003;62753;40.394;-80.022;2023-07-30T10:56:41;20;16;
74333;PMS5003;62753;40.394;-80.022;2023-07-30T10:59:07;28;21;
74333;PMS5003;62753;40.394;-80.022;2023-07-30T11:01:36;22;19;
74333;PMS5003;62753;40.394;-80.022;2023-07-30T11:03:57;21;18;
74333;PMS5003;62753;40.394;-80.022;2023-07-30T11:06:23;17;17;
74333;PMS5003;62753;40.394;-80.022;2023-07-30T11:08:48;21;17;
74333;PMS5003;62753;40.394;-80.022;2023-07-30T11:11:14;18;15;
74333;PMS5003;62753;40.394;-80.022;2023-07-30T11:13:39;15;13;
74333;PMS5003;62753;40.394;-80.022;2023-07-30T11:16:04;17;16;
74333;PMS5003;62753;40.394;-80.022;2023-07-30T11:18:31;17;14;
74333;PMS5003;62753;40.394;-80.022;2023-07-30T11:23:21;14;13;
74333;PMS5003;62753;40.394;-80.022;2023-07-30T11:25:47;18;14;
74333;PMS5003;62753;40.394;-80.022;2023-07-30T11:28:12;17;14;
74333;PMS5003;62753;40.394;-80.022;2023-07-30T11:30:38;19;17;
74333;PMS5003;62753;40.394;-80.022;2023-07-30T11:33:03;18;17;
74333;PMS5003;62753;40.394;-80.022;2023-07-30T11:35:28;18;15;
74333;PMS5003;62753;40.394;-80.022;2023-07-30T11:37:54;13;13;
74333;PMS5003;62753;40.394;-80.022;2023-07-30T11:40:18;15;13;
74333;PMS5003;62753;40.394;-80.022;2023-07-30T11:42:44;21;16;
74333;PMS5003;62753;40.394;-80.022;2023-07-30T11:45:18;18;14;
74333;PMS5003;62753;40.394;-80.022;2023-07-30T11:47:35;13;11;
74333;PMS5003;62753;40.394;-80.022;2023-07-30T11:50:01;12;11;
74333;PMS5003;62753;40.394;-80.022;2023-07-30T11:52:26;16;14;
74333;PMS5003;62753;40.394;-80.022;2023-07-30T11:57:17;15;14;
74333;PMS5003;62753;40.394;-80.022;2023-07-30T11:59:43;20;14;
74333;PMS5003;62753;40.394;-80.022;2023-07-30T12:02:08;19;17;
74333;PMS5003;62753;40.394;-80.022;2023-07-30T12:07:00;15;14;
74333;PMS5003;62753;40.394;-80.022;2023-07-30T12:09:24;16;13;
74333;PMS5003;62753;40.394;-80.022;2023-07-30T12:11:50;15;14;
74333;PMS5003;62753;40.394;-80.022;2023-07-30T12:14:15;16;15;
74333;PMS5003;62753;40.394;-80.022;2023-07-30T12:16:40;17;15;
74333;PMS5003;62753;40.394;-80.022;2023-07-30T12:19:06;17;15;
74333;PMS5003;62753;40.394;-80.022;2023-07-30T12:21:32;17;16;
74333;PMS5003;62753;40.394;-80.022;2023-07-30T12:23:57;25;19;
74333;PMS5003;62753;40.394;-80.022;2023-07-30T12:26:22;18;17;
74333;PMS5003;62753;40.394;-80.022;2023-07-30T12:28:48;19;18;
74333;PMS5003;62753;40.394;-80.022;2023-07-30T12:31:13;21;18;
74333;PMS5003;62753;40.394;-80.022;2023-07-30T12:33:38;14;13;
74333;PMS5003;62753;40.394;-80.022;2023-07-30T12:36:05;16;16;
74333;PMS5003;62753;40.394;-80.022;2023-07-30T12:38:30;22;18;
74333;PMS5003;62753;40.394;-80.022;2023-07-30T12:40:55;20;16;
74333;PMS5003;62753;40.394;-80.022;2023-07-30T12:43:20;15;12;
74333;PMS5003;62753;40.394;-80.022;2023-07-30T12:45:46;15;15;
74333;PMS5003;62753;40.394;-80.022;2023-07-30T12:48:11;19;16;
74333;PMS5003;62753;40.394;-80.022;2023-07-30T12:50:37;17;15;
74333;PMS5003;62753;40.394;-80.022;2023-07-30T12:53:02;15;14;
74333;PMS5003;62753;40.394;-80.022;2023-07-30T12:55:28;18;15;
74333;PMS5003;62753;40.394;-80.022;2023-07-30T12:57:53;12;12;
74333;PMS5003;62753;40.394;-80.022;2023-07-30T13:00:18;14;14;
74333;PMS5003;62753;40.394;-80.022;2023-07-30T13:02:44;13;13;
74333;PMS5003;62753;40.394;-80.022;2023-07-30T13:05:08;11;11;
74333;PMS5003;62753;40.394;-80.022;2023-07-30T13:07:34;11;11;
74333;PMS5003;62753;40.394;-80.022;2023-07-30T13:10:03;14;13;
74333;PMS5003;62753;40.394;-80.022;2023-07-30T13:12:25;18;13;
74333;PMS5003;62753;40.394;-80.022;2023-07-30T13:14:49;13;12;
74333;PMS5003;62753;40.394;-80.022;2023-07-30T13:17:15;20;15;
74333;PMS5003;62753;40.394;-80.022;2023-07-30T13:19:41;15;15;
74333;PMS5003;62753;40.394;-80.022;2023-07-30T13:22:05;14;13;
74333;PMS5003;62753;40.394;-80.022;2023-07-30T13:24:30;14;13;
74333;PMS5003;62753;40.394;-80.022;2023-07-30T13:26:56;12;12;
74333;PMS5003;62753;40.394;-80.022;2023-07-30T13:29:21;14;13;
74333;PMS5003;62753;40.394;-80.022;2023-07-30T13:31:47;12;12;
74333;PMS5003;62753;40.394;-80.022;2023-07-30T13:34:13;20;14;
74333;PMS5003;62753;40.394;-80.022;2023-07-30T13:36:38;16;14;
74333;PMS5003;62753;40.394;-80.022;2023-07-30T13:39:04;12;12;
74333;PMS5003;62753;40.394;-80.022;2023-07-30T13:41:29;13;12;
74333;PMS5003;62753;40.394;-80.022;2023-07-30T13:43:54;15;14;
74333;PMS5003;62753;40.394;-80.022;2023-07-30T13:46:19;14;13;
74333;PMS5003;62753;40.394;-80.022;2023-07-30T13:48:45;15;14;
74333;PMS5003;62753;40.394;-80.022;2023-07-30T13:51:10;13;12;
74333;PMS5003;62753;40.394;-80.022;2023-07-30T13:53:35;15;14;
74333;PMS5003;62753;40.394;-80.022;2023-07-30T13:56:01;13;13;
74333;PMS5003;62753;40.394;-80.022;2023-07-30T13:58:26;14;14;
74333;PMS5003;62753;40.394;-80.022;2023-07-30T14:00:53;9;9;
74333;PMS5003;62753;40.394;-80.022;2023-07-30T14:03:17;14;13;
74333;PMS5003;62753;40.394;-80.022;2023-07-30T14:05:43;12;11;
74333;PMS5003;62753;40.394;-80.022;2023-07-30T14:08:08;11;11;
74333;PMS5003;62753;40.394;-80.022;2023-07-30T14:10:33;12;11;
74333;PMS5003;62753;40.394;-80.022;2023-07-30T14:12:58;15;14;
74333;PMS5003;62753;40.394;-80.022;2023-07-30T14:15:24;12;12;
74333;PMS5003;62753;40.394;-80.022;2023-07-30T14:17:49;9;9;
74333;PMS5003;62753;40.394;-80.022;2023-07-30T14:20:14;10;9;
74333;PMS5003;62753;40.394;-80.022;2023-07-30T14:22:40;14;11;
74333;PMS5003;62753;40.394;-80.022;2023-07-30T14:25:05;10;10;
74333;PMS5003;62753;40.394;-80.022;2023-07-30T14:27:31;12;11;
74333;PMS5003;62753;40.394;-80.022;2023-07-30T14:29:56;10;8;
74333;PMS5003;62753;40.394;-80.022;2023-07-30T14:32:22;7;7;
74333;PMS5003;62753;40.394;-80.022;2023-07-30T14:34:48;9;9;
74333;PMS5003;62753;40.394;-80.022;2023-07-30T14:37:13;10;8;
74333;PMS5003;62753;40.394;-80.022;2023-07-30T14:39:39;10;10;
74333;PMS5003;62753;40.394;-80.022;2023-07-30T14:42:04;9;9;
74333;PMS5003;62753;40.394;-80.022;2023-07-30T14:44:29;13;9;
74333;PMS5003;62753;40.394;-80.022;2023-07-30T14:46:55;7;7;
74333;PMS5003;62753;40.394;-80.022;2023-07-30T14:49:20;11;9;
74333;PMS5003;62753;40.394;-80.022;2023-07-30T14:51:46;9;9;
74333;PMS5003;62753;40.394;-80.022;2023-07-30T14:54:12;9;9;
74333;PMS5003;62753;40.394;-80.022;2023-07-30T14:56:37;10;9;
74333;PMS5003;62753;40.394;-80.022;2023-07-30T14:59:02;9;9;
74333;PMS5003;62753;40.394;-80.022;2023-07-30T15:01:28;9;9;
74333;PMS5003;62753;40.394;-80.022;2023-07-30T15:03:52;11;9;
74333;PMS5003;62753;40.394;-80.022;2023-07-30T15:06:17;10;10;
74333;PMS5003;62753;40.394;-80.022;2023-07-30T15:08:42;7;7;
74333;PMS5003;62753;40.394;-80.022;2023-07-30T15:11:07;7;7;
74333;PMS5003;62753;40.394;-80.022;2023-07-30T15:13:32;9;9;
74333;PMS5003;62753;40.394;-80.022;2023-07-30T15:15:57;7;7;
74333;PMS5003;62753;40.394;-80.022;2023-07-30T15:18:23;10;10;
74333;PMS5003;62753;40.394;-80.022;2023-07-30T15:20:48;7;7;
74333;PMS5003;62753;40.394;-80.022;2023-07-30T15:23:13;11;9;
74333;PMS5003;62753;40.394;-80.022;2023-07-30T15:25:38;7;7;
74333;PMS5003;62753;40.394;-80.022;2023-07-30T15:28:03;7;7;
74333;PMS5003;62753;40.394;-80.022;2023-07-30T15:30:28;9;8;
74333;PMS5003;62753;40.394;-80.022;2023-07-30T15:32:53;9;9;
74333;PMS5003;62753;40.394;-80.022;2023-07-30T15:35:18;7;7;
74333;PMS5003;62753;40.394;-80.022;2023-07-30T15:37:44;7;7;
74333;PMS5003;62753;40.394;-80.022;2023-07-30T15:40:08;9;8;
74333;PMS5003;62753;40.394;-80.022;2023-07-30T15:42:34;10;8;
74333;PMS5003;62753;40.394;-80.022;2023-07-30T15:44:59;11;10;
74333;PMS5003;62753;40.394;-80.022;2023-07-30T15:47:24;10;9;
74333;PMS5003;62753;40.394;-80.022;2023-07-30T15:49:49;7;7;
74333;PMS5003;62753;40.394;-80.022;2023-07-30T15:52:16;9;8;
74333;PMS5003;62753;40.394;-80.022;2023-07-30T15:54:40;8;8;
74333;PMS5003;62753;40.394;-80.022;2023-07-30T15:57:06;8;6;